createdAt,value
2023-01-29T00:00:17.494Z,18.43
2023-01-29T00:01:38.291Z,18.40
2023-01-29T00:02:59.047Z,18.43
2023-01-29T00:04:20.608Z,18.42
2023-01-29T00:05:47.255Z,18.44
2023-01-29T00:07:08.287Z,18.44
2023-01-29T00:08:29.055Z,18.46
2023-01-29T00:09:50.136Z,18.50
2023-01-29T00:11:11.195Z,18.47
2023-01-29T00:12:31.991Z,18.47
2023-01-29T00:13:52.873Z,18.43
2023-01-29T00:15:13.461Z,18.44
2023-01-29T00:16:34.408Z,18.40
2023-01-29T00:17:57.682Z,18.43
2023-01-29T00:19:18.736Z,18.42
2023-01-29T00:20:43.259Z,18.43
2023-01-29T00:22:06.821Z,18.46
2023-01-29T00:23:27.541Z,18.49
2023-01-29T00:24:50.492Z,18.44
2023-01-29T00:26:11.302Z,18.45
2023-01-29T00:27:38.085Z,18.43
2023-01-29T00:28:58.870Z,18.41
2023-01-29T00:30:21.831Z,18.41
2023-01-29T00:31:45.681Z,18.41
2023-01-29T00:33:09.906Z,18.40
2023-01-29T00:34:30.388Z,18.42
2023-01-29T00:35:50.888Z,18.43
2023-01-29T00:37:14.492Z,18.42
2023-01-29T00:38:38.505Z,18.46
2023-01-29T00:40:01.392Z,18.43
2023-01-29T00:41:22.020Z,18.46
2023-01-29T00:42:45.549Z,18.44
2023-01-29T00:44:09.309Z,18.44
2023-01-29T00:45:29.910Z,18.44
2023-01-29T00:46:51.083Z,18.40
2023-01-29T00:48:12.109Z,18.39
2023-01-29T00:49:32.877Z,18.38
2023-01-29T00:50:53.621Z,18.40
2023-01-29T00:52:19.147Z,18.43
2023-01-29T00:53:42.015Z,18.41
2023-01-29T00:55:05.404Z,18.43
2023-01-29T00:56:29.266Z,18.46
2023-01-29T00:57:50.299Z,18.45
2023-01-29T00:59:11.152Z,18.44
2023-01-29T01:00:31.629Z,18.41
2023-01-29T01:01:52.286Z,18.44
2023-01-29T01:03:13.087Z,18.43
2023-01-29T01:04:35.072Z,18.43
2023-01-29T01:06:04.532Z,18.43
2023-01-29T01:07:28.703Z,18.42
2023-01-29T01:08:52.268Z,18.41
2023-01-29T01:10:15.155Z,18.39
2023-01-29T01:11:39.544Z,18.38
2023-01-29T01:13:01.249Z,18.41
2023-01-29T01:14:21.750Z,18.41
2023-01-29T01:15:44.669Z,18.42
2023-01-29T01:17:05.406Z,18.44
2023-01-29T01:18:29.277Z,18.42
2023-01-29T01:19:52.237Z,18.43
2023-01-29T01:21:13.531Z,18.39
2023-01-29T01:22:37.066Z,18.39
2023-01-29T01:23:57.689Z,18.38
2023-01-29T01:25:18.222Z,18.43
2023-01-29T01:26:39.073Z,18.40
2023-01-29T01:29:20.575Z,18.43
2023-01-29T01:30:41.470Z,18.42
2023-01-29T01:32:02.491Z,18.42
2023-01-29T01:33:23.573Z,18.42
2023-01-29T01:34:44.492Z,18.44
2023-01-29T01:36:08.345Z,18.43
2023-01-29T01:37:29.264Z,18.44
2023-01-29T01:38:54.865Z,18.42
2023-01-29T01:40:16.939Z,18.41
2023-01-29T01:41:37.695Z,18.44
2023-01-29T01:43:01.486Z,18.47
2023-01-29T01:44:37.165Z,18.44
2023-01-29T01:45:57.963Z,18.42
2023-01-29T01:47:20.704Z,18.42
2023-01-29T01:48:41.553Z,18.43
2023-01-29T01:50:04.617Z,18.40
2023-01-29T01:51:28.774Z,18.42
2023-01-29T01:52:52.061Z,18.41
2023-01-29T01:54:18.706Z,18.40
2023-01-29T01:55:41.057Z,18.39
2023-01-29T01:57:05.648Z,18.41
2023-01-29T01:58:27.946Z,18.42
2023-01-29T01:59:51.572Z,18.42
2023-01-29T02:01:13.000Z,18.43
2023-01-29T02:02:33.964Z,18.40
2023-01-29T02:03:56.815Z,18.37
2023-01-29T02:05:17.849Z,18.35
2023-01-29T02:06:40.288Z,18.36
2023-01-29T02:08:01.091Z,18.36
2023-01-29T02:09:29.272Z,18.36
2023-01-29T02:10:52.031Z,18.36
2023-01-29T02:12:14.223Z,18.38
2023-01-29T02:13:34.895Z,18.38
2023-01-29T02:14:55.557Z,18.36
2023-01-29T02:16:18.381Z,18.38
2023-01-29T02:17:39.084Z,18.38
2023-01-29T02:19:02.427Z,18.38
2023-01-29T02:20:24.675Z,18.38
2023-01-29T02:21:59.675Z,18.38
2023-01-29T02:23:37.942Z,18.38
2023-01-29T02:25:14.215Z,18.37
2023-01-29T02:26:50.090Z,18.38
2023-01-29T02:28:30.847Z,18.38
2023-01-29T02:30:02.360Z,18.38
2023-01-29T02:31:25.716Z,18.38
2023-01-29T02:32:49.992Z,18.37
2023-01-29T02:34:16.395Z,18.37
2023-01-29T02:35:41.908Z,18.37
2023-01-29T02:37:08.000Z,18.38
2023-01-29T02:38:36.356Z,18.38
2023-01-29T02:40:02.205Z,18.37
2023-01-29T02:41:26.620Z,18.38
2023-01-29T02:42:53.041Z,18.38
2023-01-29T02:44:18.840Z,18.38
2023-01-29T02:45:47.114Z,18.37
2023-01-29T02:47:13.108Z,18.39
2023-01-29T02:48:39.571Z,18.40
2023-01-29T02:50:04.157Z,18.39
2023-01-29T02:51:29.285Z,18.38
2023-01-29T02:52:55.316Z,18.39
2023-01-29T02:54:20.398Z,18.40
2023-01-29T02:55:43.906Z,18.36
2023-01-29T02:57:09.659Z,18.37
2023-01-29T02:58:38.466Z,18.39
2023-01-29T03:00:03.357Z,18.39
2023-01-29T03:01:28.660Z,18.38
2023-01-29T03:02:53.552Z,18.38
2023-01-29T03:04:18.451Z,18.34
2023-01-29T03:05:42.496Z,18.34
2023-01-29T03:07:03.912Z,18.36
2023-01-29T03:08:30.180Z,18.37
2023-01-29T03:09:53.709Z,18.35
2023-01-29T03:11:15.774Z,18.33
2023-01-29T03:12:39.138Z,18.36
2023-01-29T03:14:03.413Z,18.35
2023-01-29T03:15:26.471Z,18.37
2023-01-29T03:17:07.325Z,18.38
2023-01-29T03:18:32.210Z,18.37
2023-01-29T03:19:56.189Z,18.37
2023-01-29T03:21:20.337Z,18.37
2023-01-29T03:22:45.438Z,18.37
2023-01-29T03:24:08.937Z,18.36
2023-01-29T03:25:30.802Z,18.36
2023-01-29T03:26:52.699Z,18.36
2023-01-29T03:28:17.948Z,18.35
2023-01-29T03:29:42.303Z,18.35
2023-01-29T03:31:04.607Z,18.36
2023-01-29T03:32:37.284Z,18.33
2023-01-29T03:34:00.034Z,18.35
2023-01-29T03:35:23.518Z,18.36
2023-01-29T03:36:51.702Z,18.34
2023-01-29T03:38:12.310Z,18.37
2023-01-29T03:39:33.259Z,18.35
2023-01-29T03:40:59.684Z,18.36
2023-01-29T03:42:24.652Z,18.37
2023-01-29T03:43:50.787Z,18.37
2023-01-29T03:45:17.356Z,18.37
2023-01-29T03:46:46.581Z,18.37
2023-01-29T03:48:11.418Z,18.37
2023-01-29T03:49:36.141Z,18.35
2023-01-29T03:51:01.891Z,18.34
2023-01-29T03:52:27.384Z,18.34
2023-01-29T03:53:53.618Z,18.34
2023-01-29T03:55:15.689Z,18.37
2023-01-29T03:56:44.333Z,18.35
2023-01-29T03:58:08.418Z,18.37
2023-01-29T03:59:35.902Z,18.37
2023-01-29T04:01:11.481Z,18.39
2023-01-29T04:02:38.069Z,18.32
2023-01-29T04:04:12.401Z,18.35
2023-01-29T04:05:44.867Z,18.34
2023-01-29T04:07:21.858Z,18.37
2023-01-29T04:08:53.951Z,18.37
2023-01-29T04:10:16.984Z,18.35
2023-01-29T04:11:39.967Z,18.35
2023-01-29T04:13:03.197Z,18.34
2023-01-29T04:14:24.162Z,18.36
2023-01-29T04:15:49.686Z,18.36
2023-01-29T04:17:14.925Z,18.36
2023-01-29T04:18:45.064Z,18.37
2023-01-29T04:20:12.558Z,18.37
2023-01-29T04:21:35.497Z,18.36
2023-01-29T04:22:56.267Z,18.39
2023-01-29T04:24:17.139Z,18.35
2023-01-29T04:25:43.487Z,18.37
2023-01-29T04:27:11.494Z,18.37
2023-01-29T04:28:46.015Z,18.35
2023-01-29T04:30:13.614Z,18.38
2023-01-29T04:31:43.861Z,18.40
2023-01-29T04:33:11.411Z,18.41
2023-01-29T04:34:40.438Z,18.39
2023-01-29T04:36:13.985Z,18.36
2023-01-29T04:37:36.789Z,18.38
2023-01-29T04:39:04.348Z,18.37
2023-01-29T04:40:27.174Z,18.38
2023-01-29T04:41:50.331Z,18.37
2023-01-29T04:43:16.327Z,18.38
2023-01-29T04:44:40.069Z,18.39
2023-01-29T04:46:09.894Z,18.37
2023-01-29T04:47:35.263Z,18.38
2023-01-29T04:49:09.617Z,18.36
2023-01-29T04:50:34.899Z,18.37
2023-01-29T04:52:07.744Z,18.36
2023-01-29T04:53:30.783Z,18.36
2023-01-29T04:54:57.392Z,18.37
2023-01-29T04:56:21.416Z,18.37
2023-01-29T04:57:46.152Z,18.36
2023-01-29T04:59:09.381Z,18.37
2023-01-29T05:00:32.004Z,18.37
2023-01-29T05:01:52.996Z,18.34
2023-01-29T05:03:16.388Z,18.35
2023-01-29T05:04:38.928Z,18.36
2023-01-29T05:06:00.759Z,18.36
2023-01-29T05:07:24.372Z,18.36
2023-01-29T05:08:46.031Z,18.35
2023-01-29T05:10:08.343Z,18.37
2023-01-29T05:11:30.828Z,18.35
2023-01-29T05:12:52.594Z,18.38
2023-01-29T05:14:13.795Z,18.38
2023-01-29T05:15:37.230Z,18.32
2023-01-29T05:17:03.249Z,18.36
2023-01-29T05:18:23.841Z,18.34
2023-01-29T05:19:44.994Z,18.36
2023-01-29T05:21:09.413Z,18.36
2023-01-29T05:22:32.918Z,18.34
2023-01-29T05:24:10.595Z,18.36
2023-01-29T05:25:32.378Z,18.36
2023-01-29T05:26:54.534Z,18.35
2023-01-29T05:28:15.424Z,18.36
2023-01-29T05:29:35.900Z,18.35
2023-01-29T05:30:57.539Z,18.32
2023-01-29T05:32:18.229Z,18.34
2023-01-29T05:33:39.037Z,18.34
2023-01-29T05:34:59.708Z,18.33
2023-01-29T05:36:20.560Z,18.28
2023-01-29T05:37:43.915Z,18.32
2023-01-29T05:39:07.131Z,18.33
2023-01-29T05:40:30.441Z,18.30
2023-01-29T05:41:53.621Z,18.33
2023-01-29T05:43:15.465Z,18.32
2023-01-29T05:44:36.329Z,18.32
2023-01-29T05:45:59.969Z,18.33
2023-01-29T05:47:23.379Z,18.33
2023-01-29T05:48:44.006Z,18.32
2023-01-29T05:50:05.032Z,18.30
2023-01-29T05:51:25.824Z,18.29
2023-01-29T05:52:49.489Z,18.29
2023-01-29T05:54:11.132Z,18.30
2023-01-29T05:55:31.622Z,18.30
2023-01-29T05:56:52.476Z,18.32
2023-01-29T05:58:16.204Z,18.30
2023-01-29T05:59:37.114Z,18.30
2023-01-29T06:00:57.586Z,18.32
2023-01-29T06:02:21.446Z,18.30
2023-01-29T06:03:45.007Z,18.31
2023-01-29T06:05:06.304Z,18.32
2023-01-29T06:06:29.383Z,18.33
2023-01-29T06:07:55.186Z,18.34
2023-01-29T06:09:16.229Z,18.36
2023-01-29T06:10:39.937Z,18.39
2023-01-29T06:12:03.130Z,18.38
2023-01-29T06:13:23.976Z,18.39
2023-01-29T06:14:46.898Z,18.40
2023-01-29T06:16:08.144Z,18.36
2023-01-29T06:17:28.943Z,18.41
2023-01-29T06:18:52.611Z,18.42
2023-01-29T06:20:15.816Z,18.41
2023-01-29T06:21:36.839Z,18.41
2023-01-29T06:23:00.313Z,18.42
2023-01-29T06:24:21.242Z,18.42
2023-01-29T06:25:42.364Z,18.42
2023-01-29T06:27:05.541Z,18.44
2023-01-29T06:28:26.366Z,18.42
2023-01-29T06:29:47.228Z,18.43
2023-01-29T06:31:37.283Z,18.43
2023-01-29T06:32:49.022Z,18.42
2023-01-29T06:34:09.961Z,18.39
2023-01-29T06:35:31.080Z,18.41
2023-01-29T06:36:54.439Z,18.43
2023-01-29T06:38:17.659Z,18.43
2023-01-29T06:39:38.444Z,18.41
2023-01-29T06:41:08.186Z,18.42
2023-01-29T06:42:31.289Z,18.41
2023-01-29T06:43:54.095Z,18.41
2023-01-29T06:45:14.789Z,18.42
2023-01-29T06:46:37.591Z,18.43
2023-01-29T06:48:00.513Z,18.36
2023-01-29T06:49:22.148Z,18.42
2023-01-29T06:50:43.236Z,18.43
2023-01-29T06:52:03.711Z,18.43
2023-01-29T06:53:26.865Z,18.42
2023-01-29T06:54:47.632Z,18.43
2023-01-29T06:56:10.328Z,18.42
2023-01-29T06:57:33.016Z,18.40
2023-01-29T06:58:53.638Z,18.41
2023-01-29T07:00:15.239Z,18.37
2023-01-29T07:01:38.904Z,18.39
2023-01-29T07:02:59.724Z,18.35
2023-01-29T07:04:20.426Z,18.39
2023-01-29T07:05:43.345Z,18.41
2023-01-29T07:07:03.952Z,18.42
2023-01-29T07:08:27.535Z,18.44
2023-01-29T07:09:48.332Z,18.44
2023-01-29T07:11:11.684Z,18.42
2023-01-29T07:12:32.604Z,18.41
2023-01-29T07:13:53.536Z,18.39
2023-01-29T07:15:14.423Z,18.40
2023-01-29T07:16:35.307Z,18.38
2023-01-29T07:17:58.819Z,18.39
2023-01-29T07:19:19.531Z,18.36
2023-01-29T07:20:43.227Z,18.40
2023-01-29T07:22:04.044Z,18.44
2023-01-29T07:23:28.133Z,18.43
2023-01-29T07:24:49.039Z,18.42
2023-01-29T07:26:10.290Z,18.43
2023-01-29T07:27:33.308Z,18.43
2023-01-29T07:28:54.065Z,18.42
2023-01-29T07:30:17.808Z,18.41
2023-01-29T07:31:38.869Z,18.39
2023-01-29T07:33:01.711Z,18.41
2023-01-29T07:34:22.592Z,18.42
2023-01-29T07:35:43.409Z,18.42
2023-01-29T07:37:06.514Z,18.42
2023-01-29T07:38:32.043Z,18.40
2023-01-29T07:39:53.004Z,18.41
2023-01-29T07:41:13.985Z,18.41
2023-01-29T07:42:39.103Z,18.42
2023-01-29T07:44:00.291Z,18.44
2023-01-29T07:45:21.123Z,18.40
2023-01-29T07:46:41.685Z,18.39
2023-01-29T07:48:05.997Z,18.41
2023-01-29T07:49:29.030Z,18.39
2023-01-29T07:50:54.563Z,18.40
2023-01-29T07:52:17.565Z,18.40
2023-01-29T07:53:43.626Z,18.40
2023-01-29T07:55:05.142Z,18.40
2023-01-29T07:56:25.988Z,18.39
2023-01-29T07:57:46.816Z,18.39
2023-01-29T07:59:09.516Z,18.38
2023-01-29T08:00:30.862Z,18.37
2023-01-29T08:01:51.495Z,18.40
2023-01-29T08:03:15.561Z,18.39
2023-01-29T08:04:38.669Z,18.40
2023-01-29T08:05:59.403Z,18.41
2023-01-29T08:07:23.083Z,18.41
2023-01-29T08:08:46.500Z,18.40
2023-01-29T08:10:07.836Z,18.41
2023-01-29T08:11:28.614Z,18.40
2023-01-29T08:12:53.468Z,18.42
2023-01-29T08:14:14.131Z,18.43
2023-01-29T08:15:39.188Z,18.42
2023-01-29T08:17:02.391Z,18.44
2023-01-29T08:18:26.194Z,18.44
2023-01-29T08:19:47.420Z,18.45
2023-01-29T08:21:09.291Z,18.44
2023-01-29T08:22:30.022Z,18.44
2023-01-29T08:23:53.621Z,18.44
2023-01-29T08:25:15.134Z,18.43
2023-01-29T08:26:36.158Z,18.44
2023-01-29T08:28:00.156Z,18.43
2023-01-29T08:29:21.064Z,18.43
2023-01-29T08:30:42.352Z,18.42
2023-01-29T08:32:03.429Z,18.45
2023-01-29T08:33:37.170Z,18.42
2023-01-29T08:35:02.042Z,18.39
2023-01-29T08:36:22.933Z,18.43
2023-01-29T08:37:52.499Z,18.48
2023-01-29T08:39:16.071Z,18.46
2023-01-29T08:40:36.965Z,18.50
2023-01-29T08:41:57.847Z,18.51
2023-01-29T08:43:18.769Z,18.47
2023-01-29T08:44:39.678Z,18.46
2023-01-29T08:46:03.742Z,18.53
2023-01-29T08:47:24.995Z,18.52
2023-01-29T08:48:45.987Z,18.55
2023-01-29T08:50:09.816Z,18.54
2023-01-29T08:51:30.668Z,18.57
2023-01-29T08:52:51.738Z,18.58
2023-01-29T08:54:12.459Z,18.60
2023-01-29T08:55:36.178Z,18.60
2023-01-29T08:56:57.080Z,18.58
2023-01-29T08:58:18.052Z,18.59
2023-01-29T08:59:38.938Z,18.58
2023-01-29T09:01:05.590Z,18.55
2023-01-29T09:02:26.238Z,18.59
2023-01-29T09:03:47.016Z,18.57
2023-01-29T09:05:08.780Z,18.60
2023-01-29T09:06:29.739Z,18.59
2023-01-29T09:07:52.621Z,18.61
2023-01-29T09:09:14.051Z,18.58
2023-01-29T09:10:37.192Z,18.59
2023-01-29T09:11:58.082Z,18.56
2023-01-29T09:13:19.368Z,18.59
2023-01-29T09:14:40.540Z,18.57
2023-01-29T09:16:01.743Z,18.43
2023-01-29T09:17:22.370Z,17.33
2023-01-29T09:18:42.997Z,16.61
2023-01-29T09:20:07.327Z,16.79
2023-01-29T09:32:58.254Z,15.88
2023-01-29T09:34:22.672Z,14.23
2023-01-29T09:35:44.561Z,13.38
2023-01-29T09:37:06.104Z,12.80
2023-01-29T09:38:27.665Z,13.08
2023-01-29T09:39:52.302Z,13.50
2023-01-29T09:41:34.053Z,13.89
2023-01-29T09:43:01.132Z,14.31
2023-01-29T09:44:35.192Z,14.69
2023-01-29T09:46:02.670Z,15.05
2023-01-29T09:47:26.823Z,15.37
2023-01-29T09:49:13.406Z,15.68
2023-01-29T09:50:41.481Z,15.96
2023-01-29T09:52:12.720Z,16.17
2023-01-29T09:53:43.177Z,16.38
2023-01-29T09:55:12.775Z,16.56
2023-01-29T09:59:25.383Z,16.96
2023-01-29T10:08:39.221Z,17.45
2023-01-29T10:17:02.727Z,17.70
2023-01-29T10:37:44.517Z,17.94
2023-01-29T10:39:05.793Z,17.93
2023-01-29T10:47:43.188Z,18.00
2023-01-29T11:00:38.527Z,18.14
2023-01-29T11:05:55.457Z,18.17
2023-01-29T11:06:51.667Z,18.23
2023-01-29T11:15:37.719Z,18.33
2023-01-29T11:17:27.987Z,18.34
2023-01-29T11:20:03.138Z,18.35
2023-01-29T11:24:16.569Z,18.35
2023-01-29T11:26:05.052Z,18.33
2023-01-29T11:27:54.680Z,18.28
2023-01-29T11:35:43.070Z,18.25
2023-01-29T11:48:51.167Z,18.24
2023-01-29T11:50:28.485Z,18.27
2023-01-29T11:52:16.229Z,18.29
2023-01-29T11:55:55.146Z,18.35
2023-01-29T11:57:30.910Z,18.36
2023-01-29T11:58:54.950Z,18.41
2023-01-29T12:00:26.329Z,18.37
2023-01-29T12:01:57.559Z,18.37
2023-01-29T12:06:13.403Z,18.40
2023-01-29T12:07:55.454Z,18.38
2023-01-29T12:09:33.660Z,18.38
2023-01-29T12:11:11.423Z,18.41
2023-01-29T12:12:43.711Z,18.39
2023-01-29T12:16:23.520Z,18.42
2023-01-29T12:18:09.034Z,18.53
2023-01-29T12:19:51.755Z,18.51
2023-01-29T12:21:35.580Z,18.55
2023-01-29T12:23:42.149Z,18.58
2023-01-29T12:25:25.903Z,18.55
2023-01-29T12:27:01.827Z,18.55
2023-01-29T12:28:53.040Z,18.51
2023-01-29T12:30:24.293Z,18.44
2023-01-29T12:32:28.087Z,18.42
2023-01-29T12:34:35.186Z,18.38
2023-01-29T12:36:19.156Z,18.38
2023-01-29T12:37:53.836Z,18.38
2023-01-29T12:40:12.200Z,18.41
2023-01-29T12:41:58.658Z,18.41
2023-01-29T12:43:30.162Z,18.42
2023-01-29T12:45:04.619Z,18.42
2023-01-29T12:46:45.140Z,18.42
2023-01-29T12:48:50.896Z,18.45
2023-01-29T12:56:45.315Z,18.37
2023-01-29T12:58:25.632Z,18.36
2023-01-29T13:01:28.128Z,18.38
2023-01-29T13:03:17.217Z,18.40
2023-01-29T13:05:04.329Z,18.37
2023-01-29T13:15:31.846Z,18.30
2023-01-29T13:17:30.502Z,18.29
2023-01-29T13:19:10.426Z,18.30
2023-01-29T13:20:47.143Z,18.33
2023-01-29T13:26:31.656Z,18.32
2023-01-29T13:28:19.714Z,18.28
2023-01-29T13:30:09.902Z,18.31
2023-01-29T13:32:05.491Z,18.32
2023-01-29T13:37:26.616Z,18.33
2023-01-29T13:39:03.787Z,18.32
2023-01-29T13:40:35.089Z,18.32
2023-01-29T13:46:06.234Z,18.30
2023-01-29T13:47:49.409Z,18.34
2023-01-29T13:49:30.366Z,18.32
2023-01-29T13:51:21.894Z,18.34
2023-01-29T13:52:54.657Z,18.35
2023-01-29T14:21:24.512Z,18.29
2023-01-29T14:23:00.550Z,18.29
2023-01-29T14:24:38.348Z,18.34
2023-01-29T14:26:06.624Z,18.37
2023-01-29T14:27:33.383Z,18.36
2023-01-29T14:29:04.841Z,18.46
2023-01-29T14:30:32.487Z,18.40
2023-01-29T14:32:09.668Z,18.39
2023-01-29T14:34:10.637Z,18.41
2023-01-29T14:35:40.609Z,18.43
2023-01-29T14:37:22.399Z,18.48
2023-01-29T14:38:53.778Z,18.51
2023-01-29T14:40:27.574Z,18.48
2023-01-29T14:41:52.293Z,18.49
2023-01-29T14:43:19.984Z,18.48
2023-01-29T14:45:22.492Z,18.49
2023-01-29T14:46:56.867Z,18.44
2023-01-29T14:50:50.902Z,18.50
2023-01-29T14:52:40.671Z,18.50
2023-01-29T14:54:37.846Z,18.60
2023-01-29T14:56:17.655Z,18.57
2023-01-29T14:57:45.748Z,18.55
2023-01-29T14:59:25.931Z,18.53
2023-01-29T15:01:10.527Z,18.54
2023-01-29T15:02:40.974Z,18.54
2023-01-29T15:04:13.010Z,18.54
2023-01-29T15:14:41.874Z,18.52
2023-01-29T15:16:22.065Z,18.49
2023-01-29T15:28:51.858Z,18.42
2023-01-29T15:43:35.047Z,18.37
2023-01-29T15:45:50.627Z,18.36
2023-01-29T15:47:27.887Z,18.34
2023-01-29T15:51:55.884Z,18.36
2023-01-29T15:58:27.253Z,18.38
2023-01-29T16:15:15.838Z,18.28
2023-01-29T16:54:18.990Z,18.26
2023-01-29T17:01:45.412Z,18.32
2023-01-29T18:27:53.498Z,18.41
2023-01-29T18:54:34.211Z,18.49
2023-01-29T19:13:12.931Z,18.53
2023-01-29T19:55:57.365Z,18.46
2023-01-29T20:19:46.439Z,18.34
2023-01-29T20:21:12.412Z,18.37
2023-01-29T20:23:09.687Z,18.36
2023-01-29T20:24:34.130Z,18.34
2023-01-29T20:26:00.825Z,18.34
2023-01-29T20:27:22.976Z,18.33
2023-01-29T20:28:58.890Z,18.32
2023-01-29T20:30:20.564Z,18.33
2023-01-29T20:31:42.563Z,18.31
2023-01-29T20:33:05.158Z,18.31
2023-01-29T20:34:28.950Z,18.31
2023-01-29T20:35:58.142Z,18.30
2023-01-29T20:37:20.130Z,18.29
2023-01-29T20:38:58.011Z,18.30
2023-01-29T20:40:22.431Z,18.33
2023-01-29T20:42:19.062Z,18.34
2023-01-29T20:43:43.254Z,18.37
2023-01-29T20:45:17.919Z,18.33
2023-01-29T20:46:42.627Z,18.36
2023-01-29T20:48:30.379Z,18.38
2023-01-29T20:50:02.687Z,18.38
2023-01-29T20:51:31.781Z,18.40
2023-01-29T20:55:02.866Z,18.42
2023-01-29T20:56:37.412Z,18.41
2023-01-29T20:58:05.525Z,18.41
2023-01-29T20:59:31.429Z,18.41
2023-01-29T21:00:53.326Z,18.42
2023-01-29T21:02:21.022Z,18.41
2023-01-29T21:03:43.252Z,18.41
2023-01-29T21:05:05.711Z,18.43
2023-01-29T21:07:26.074Z,18.44
2023-01-29T21:08:27.703Z,18.46
2023-01-29T21:09:49.100Z,18.46
2023-01-29T21:11:11.034Z,18.47
2023-01-29T21:12:32.969Z,18.46
2023-01-29T21:25:44.494Z,18.51
2023-01-29T21:36:05.656Z,18.50
2023-01-29T21:38:21.219Z,18.47
2023-01-29T21:40:26.218Z,18.47
2023-01-29T22:11:26.073Z,18.43
2023-01-29T22:21:05.697Z,18.34
2023-01-29T22:22:02.252Z,18.34
2023-01-29T22:23:41.959Z,18.34
2023-01-29T22:27:53.992Z,18.31
2023-01-29T22:30:06.981Z,18.29
2023-01-29T22:53:03.161Z,18.32
2023-01-29T23:03:21.910Z,18.33
2023-01-29T23:04:56.403Z,18.37
2023-01-29T23:06:31.097Z,18.39
2023-01-29T23:25:53.348Z,18.36
2023-01-29T23:30:00.794Z,18.36
2023-01-29T23:40:04.135Z,18.30
2023-01-29T23:44:12.196Z,18.32
2023-01-29T23:46:10.606Z,18.31
2023-01-29T23:47:50.213Z,18.29
2023-01-29T23:51:57.119Z,18.33
